sensor_id;sensor_type;location;lat;lon;timestamp;temperature;humidity
19999;DHT22;10160;50.926;4.374;2023-05-18T00:00:43;10.70;99.90
19999;DHT22;10160;50.926;4.374;2023-05-18T00:03:09;10.70;99.90
19999;DHT22;10160;50.926;4.374;2023-05-18T00:05:35;10.80;99.90
19999;DHT22;10160;50.926;4.374;2023-05-18T00:08:01;10.70;99.90
19999;DHT22;10160;50.926;4.374;2023-05-18T00:10:27;10.80;99.90
19999;DHT22;10160;50.926;4.374;2023-05-18T00:12:54;10.80;99.90
19999;DHT22;10160;50.926;4.374;2023-05-18T00:15:19;10.90;99.90
19999;DHT22;10160;50.926;4.374;2023-05-18T00:17:45;10.70;99.90
19999;DHT22;10160;50.926;4.374;2023-05-18T00:20:11;10.70;99.90
19999;DHT22;10160;50.926;4.374;2023-05-18T00:22:37;10.70;99.90
19999;DHT22;10160;50.926;4.374;2023-05-18T00:25:07;10.70;99.90
19999;DHT22;10160;50.926;4.374;2023-05-18T00:27:33;10.50;99.90
19999;DHT22;10160;50.926;4.374;2023-05-18T00:29:58;10.60;99.90
19999;DHT22;10160;50.926;4.374;2023-05-18T00:32:24;10.50;99.90
19999;DHT22;10160;50.926;4.374;2023-05-18T00:34:50;10.60;99.90
19999;DHT22;10160;50.926;4.374;2023-05-18T00:37:15;10.60;99.90
19999;DHT22;10160;50.926;4.374;2023-05-18T00:39:41;10.60;99.90
19999;DHT22;10160;50.926;4.374;2023-05-18T00:42:07;10.60;99.90
19999;DHT22;10160;50.926;4.374;2023-05-18T00:44:32;10.50;99.90
19999;DHT22;10160;50.926;4.374;2023-05-18T00:46:58;10.60;99.90
19999;DHT22;10160;50.926;4.374;2023-05-18T00:49:25;10.50;99.90
19999;DHT22;10160;50.926;4.374;2023-05-18T00:51:51;10.50;99.90
19999;DHT22;10160;50.926;4.374;2023-05-18T00:54:18;10.40;99.90
19999;DHT22;10160;50.926;4.374;2023-05-18T00:56:45;10.40;99.90
19999;DHT22;10160;50.926;4.374;2023-05-18T00:59:12;10.40;99.90
19999;DHT22;10160;50.926;4.374;2023-05-18T01:01:38;10.40;99.90
19999;DHT22;10160;50.926;4.374;2023-05-18T01:04:08;10.40;99.90
19999;DHT22;10160;50.926;4.374;2023-05-18T01:06:34;10.40;99.90
19999;DHT22;10160;50.926;4.374;2023-05-18T01:09:03;10.20;99.90
19999;DHT22;10160;50.926;4.374;2023-05-18T01:17:11;10.10;99.90
19999;DHT22;10160;50.926;4.374;2023-05-18T01:28:04;9.60;99.90
19999;DHT22;10160;50.926;4.374;2023-05-18T01:30:33;9.60;99.90
19999;DHT22;10160;50.926;4.374;2023-05-18T01:33:03;9.70;99.90
19999;DHT22;10160;50.926;4.374;2023-05-18T01:35:30;9.60;99.90
19999;DHT22;10160;50.926;4.374;2023-05-18T01:37:56;9.50;99.90
19999;DHT22;10160;50.926;4.374;2023-05-18T01:40:22;9.70;99.90
19999;DHT22;10160;50.926;4.374;2023-05-18T01:42:55;9.70;99.90
19999;DHT22;10160;50.926;4.374;2023-05-18T01:45:21;9.70;99.90
19999;DHT22;10160;50.926;4.374;2023-05-18T01:47:51;9.80;99.90
19999;DHT22;10160;50.926;4.374;2023-05-18T01:50:22;9.80;99.90
19999;DHT22;10160;50.926;4.374;2023-05-18T01:53:05;9.80;99.90
19999;DHT22;10160;50.926;4.374;2023-05-18T01:55:31;9.80;99.90
19999;DHT22;10160;50.926;4.374;2023-05-18T01:57:57;9.80;99.90
19999;DHT22;10160;50.926;4.374;2023-05-18T02:00:25;9.80;99.90
19999;DHT22;10160;50.926;4.374;2023-05-18T02:02:51;9.80;99.90
19999;DHT22;10160;50.926;4.374;2023-05-18T02:05:16;9.80;99.90
19999;DHT22;10160;50.926;4.374;2023-05-18T02:07:42;9.90;99.90
19999;DHT22;10160;50.926;4.374;2023-05-18T02:10:09;9.90;99.90
19999;DHT22;10160;50.926;4.374;2023-05-18T02:12:35;9.80;99.90
19999;DHT22;10160;50.926;4.374;2023-05-18T02:15:01;9.90;99.90
19999;DHT22;10160;50.926;4.374;2023-05-18T02:17:31;9.80;99.90
19999;DHT22;10160;50.926;4.374;2023-05-18T02:19:57;9.70;99.90
19999;DHT22;10160;50.926;4.374;2023-05-18T02:22:23;9.70;99.90
19999;DHT22;10160;50.926;4.374;2023-05-18T02:24:48;9.80;99.90
19999;DHT22;10160;50.926;4.374;2023-05-18T02:27:14;9.50;99.90
19999;DHT22;10160;50.926;4.374;2023-05-18T02:29:40;9.40;99.90
19999;DHT22;10160;50.926;4.374;2023-05-18T02:32:06;9.50;99.90
19999;DHT22;10160;50.926;4.374;2023-05-18T02:34:32;9.30;99.90
19999;DHT22;10160;50.926;4.374;2023-05-18T02:37:00;9.20;99.90
19999;DHT22;10160;50.926;4.374;2023-05-18T02:39:28;8.80;99.90
19999;DHT22;10160;50.926;4.374;2023-05-18T02:41:54;9.00;99.90
19999;DHT22;10160;50.926;4.374;2023-05-18T02:44:20;9.00;99.90
19999;DHT22;10160;50.926;4.374;2023-05-18T02:46:46;9.00;99.90
19999;DHT22;10160;50.926;4.374;2023-05-18T02:49:12;9.20;99.90
19999;DHT22;10160;50.926;4.374;2023-05-18T02:51:37;9.30;99.90
19999;DHT22;10160;50.926;4.374;2023-05-18T02:54:03;9.50;99.90
19999;DHT22;10160;50.926;4.374;2023-05-18T02:56:29;9.40;99.90
19999;DHT22;10160;50.926;4.374;2023-05-18T02:58:54;9.40;99.90
19999;DHT22;10160;50.926;4.374;2023-05-18T03:01:23;9.40;99.90
19999;DHT22;10160;50.926;4.374;2023-05-18T03:03:52;9.50;99.90
19999;DHT22;10160;50.926;4.374;2023-05-18T03:06:19;9.60;99.90
19999;DHT22;10160;50.926;4.374;2023-05-18T03:08:54;9.60;99.90
19999;DHT22;10160;50.926;4.374;2023-05-18T03:11:21;9.50;99.90
19999;DHT22;10160;50.926;4.374;2023-05-18T03:13:47;9.60;99.90
19999;DHT22;10160;50.926;4.374;2023-05-18T03:16:13;9.50;99.90
19999;DHT22;10160;50.926;4.374;2023-05-18T03:18:39;9.50;99.90
19999;DHT22;10160;50.926;4.374;2023-05-18T03:21:05;9.50;99.90
19999;DHT22;10160;50.926;4.374;2023-05-18T03:23:33;9.50;99.90
19999;DHT22;10160;50.926;4.374;2023-05-18T03:25:59;9.40;99.90
19999;DHT22;10160;50.926;4.374;2023-05-18T03:28:28;9.40;99.90
19999;DHT22;10160;50.926;4.374;2023-05-18T03:30:54;9.30;99.90
19999;DHT22;10160;50.926;4.374;2023-05-18T03:33:20;9.30;99.90
19999;DHT22;10160;50.926;4.374;2023-05-18T03:35:46;9.30;99.90
19999;DHT22;10160;50.926;4.374;2023-05-18T03:38:11;9.20;99.90
19999;DHT22;10160;50.926;4.374;2023-05-18T03:40:37;9.20;99.90
19999;DHT22;10160;50.926;4.374;2023-05-18T03:43:03;9.20;99.90
19999;DHT22;10160;50.926;4.374;2023-05-18T03:45:28;9.30;99.90
19999;DHT22;10160;50.926;4.374;2023-05-18T03:47:54;9.30;99.90
19999;DHT22;10160;50.926;4.374;2023-05-18T03:50:20;9.40;99.90
19999;DHT22;10160;50.926;4.374;2023-05-18T03:52:46;9.30;99.90
19999;DHT22;10160;50.926;4.374;2023-05-18T03:55:11;9.40;99.90
19999;DHT22;10160;50.926;4.374;2023-05-18T03:57:37;9.40;99.90
19999;DHT22;10160;50.926;4.374;2023-05-18T04:00:05;9.30;99.90
19999;DHT22;10160;50.926;4.374;2023-05-18T04:02:37;9.30;99.90
19999;DHT22;10160;50.926;4.374;2023-05-18T04:05:03;9.40;99.90
19999;DHT22;10160;50.926;4.374;2023-05-18T04:07:29;9.30;99.90
19999;DHT22;10160;50.926;4.374;2023-05-18T04:09:55;9.20;99.90
19999;DHT22;10160;50.926;4.374;2023-05-18T04:12:21;9.20;99.90
19999;DHT22;10160;50.926;4.374;2023-05-18T04:14:47;9.30;99.90
19999;DHT22;10160;50.926;4.374;2023-05-18T04:17:18;9.20;99.90
19999;DHT22;10160;50.926;4.374;2023-05-18T04:19:49;9.20;99.90
19999;DHT22;10160;50.926;4.374;2023-05-18T04:22:15;9.40;99.90
19999;DHT22;10160;50.926;4.374;2023-05-18T04:24:42;9.20;99.90
19999;DHT22;10160;50.926;4.374;2023-05-18T04:27:10;9.30;99.90
19999;DHT22;10160;50.926;4.374;2023-05-18T04:29:36;9.30;99.90
19999;DHT22;10160;50.926;4.374;2023-05-18T04:32:07;9.30;99.90
19999;DHT22;10160;50.926;4.374;2023-05-18T04:34:33;9.30;99.90
19999;DHT22;10160;50.926;4.374;2023-05-18T04:37:03;9.30;99.90
19999;DHT22;10160;50.926;4.374;2023-05-18T04:39:34;9.40;99.90
19999;DHT22;10160;50.926;4.374;2023-05-18T04:42:03;9.50;99.90
19999;DHT22;10160;50.926;4.374;2023-05-18T04:44:30;9.50;99.90
19999;DHT22;10160;50.926;4.374;2023-05-18T04:46:59;9.50;99.90
19999;DHT22;10160;50.926;4.374;2023-05-18T04:49:25;9.50;99.90
19999;DHT22;10160;50.926;4.374;2023-05-18T04:51:54;9.50;99.90
19999;DHT22;10160;50.926;4.374;2023-05-18T04:54:28;9.50;99.90
19999;DHT22;10160;50.926;4.374;2023-05-18T04:56:57;9.60;99.90
19999;DHT22;10160;50.926;4.374;2023-05-18T04:59:24;9.60;99.90
19999;DHT22;10160;50.926;4.374;2023-05-18T05:01:54;9.70;99.90
19999;DHT22;10160;50.926;4.374;2023-05-18T05:04:20;9.70;99.90
19999;DHT22;10160;50.926;4.374;2023-05-18T05:06:46;9.70;99.90
19999;DHT22;10160;50.926;4.374;2023-05-18T05:09:12;9.70;99.90
19999;DHT22;10160;50.926;4.374;2023-05-18T05:11:39;9.80;99.90
19999;DHT22;10160;50.926;4.374;2023-05-18T05:14:05;9.90;99.90
19999;DHT22;10160;50.926;4.374;2023-05-18T05:16:30;10.00;99.90
19999;DHT22;10160;50.926;4.374;2023-05-18T05:18:56;10.00;99.90
19999;DHT22;10160;50.926;4.374;2023-05-18T05:21:22;10.00;99.90
19999;DHT22;10160;50.926;4.374;2023-05-18T05:23:47;10.00;99.90
19999;DHT22;10160;50.926;4.374;2023-05-18T05:26:13;10.00;99.90
19999;DHT22;10160;50.926;4.374;2023-05-18T05:28:39;10.00;99.90
19999;DHT22;10160;50.926;4.374;2023-05-18T05:31:05;10.10;99.90
19999;DHT22;10160;50.926;4.374;2023-05-18T05:33:31;10.10;99.90
19999;DHT22;10160;50.926;4.374;2023-05-18T05:35:57;10.10;99.90
19999;DHT22;10160;50.926;4.374;2023-05-18T05:38:22;10.10;99.90
19999;DHT22;10160;50.926;4.374;2023-05-18T05:40:48;10.20;99.90
19999;DHT22;10160;50.926;4.374;2023-05-18T05:43:14;10.20;99.90
19999;DHT22;10160;50.926;4.374;2023-05-18T05:45:40;10.20;99.90
19999;DHT22;10160;50.926;4.374;2023-05-18T05:48:08;10.30;99.90
19999;DHT22;10160;50.926;4.374;2023-05-18T05:50:34;10.40;99.90
19999;DHT22;10160;50.926;4.374;2023-05-18T05:53:00;10.40;99.90
19999;DHT22;10160;50.926;4.374;2023-05-18T05:55:26;10.40;99.90
19999;DHT22;10160;50.926;4.374;2023-05-18T05:57:51;10.50;99.90
19999;DHT22;10160;50.926;4.374;2023-05-18T06:00:17;10.60;99.90
19999;DHT22;10160;50.926;4.374;2023-05-18T06:02:43;10.60;99.90
19999;DHT22;10160;50.926;4.374;2023-05-18T06:05:09;10.70;99.90
19999;DHT22;10160;50.926;4.374;2023-05-18T06:07:34;10.60;99.90
19999;DHT22;10160;50.926;4.374;2023-05-18T06:10:01;10.70;99.90
19999;DHT22;10160;50.926;4.374;2023-05-18T06:12:27;10.70;99.90
19999;DHT22;10160;50.926;4.374;2023-05-18T06:14:54;10.70;99.90
19999;DHT22;10160;50.926;4.374;2023-05-18T06:17:25;10.80;99.90
19999;DHT22;10160;50.926;4.374;2023-05-18T06:19:52;10.90;99.90
19999;DHT22;10160;50.926;4.374;2023-05-18T06:22:17;10.90;99.90
19999;DHT22;10160;50.926;4.374;2023-05-18T06:24:43;10.80;99.90
19999;DHT22;10160;50.926;4.374;2023-05-18T06:27:09;10.90;99.90
19999;DHT22;10160;50.926;4.374;2023-05-18T06:29:36;10.60;99.90
19999;DHT22;10160;50.926;4.374;2023-05-18T06:32:01;10.70;99.90
19999;DHT22;10160;50.926;4.374;2023-05-18T06:34:27;10.80;99.90
19999;DHT22;10160;50.926;4.374;2023-05-18T06:36:53;11.00;99.90
19999;DHT22;10160;50.926;4.374;2023-05-18T06:39:19;11.10;99.90
19999;DHT22;10160;50.926;4.374;2023-05-18T06:41:44;11.20;99.90
19999;DHT22;10160;50.926;4.374;2023-05-18T06:44:11;11.20;99.90
19999;DHT22;10160;50.926;4.374;2023-05-18T06:46:37;11.30;99.90
19999;DHT22;10160;50.926;4.374;2023-05-18T06:49:03;11.40;99.90
19999;DHT22;10160;50.926;4.374;2023-05-18T06:51:29;11.40;99.90
19999;DHT22;10160;50.926;4.374;2023-05-18T06:53:56;11.10;99.90
19999;DHT22;10160;50.926;4.374;2023-05-18T06:56:22;10.70;99.90
19999;DHT22;10160;50.926;4.374;2023-05-18T06:58:47;10.90;99.90
19999;DHT22;10160;50.926;4.374;2023-05-18T07:01:14;11.00;99.90
19999;DHT22;10160;50.926;4.374;2023-05-18T07:03:42;11.30;99.90
19999;DHT22;10160;50.926;4.374;2023-05-18T07:06:08;11.40;99.90
19999;DHT22;10160;50.926;4.374;2023-05-18T07:08:33;11.40;99.90
19999;DHT22;10160;50.926;4.374;2023-05-18T07:11:02;11.60;99.90
19999;DHT22;10160;50.926;4.374;2023-05-18T07:13:27;11.80;99.90
19999;DHT22;10160;50.926;4.374;2023-05-18T07:15:53;12.10;99.90
19999;DHT22;10160;50.926;4.374;2023-05-18T07:18:19;12.20;99.90
19999;DHT22;10160;50.926;4.374;2023-05-18T07:20:44;12.00;99.90
19999;DHT22;10160;50.926;4.374;2023-05-18T07:23:10;12.10;99.90
19999;DHT22;10160;50.926;4.374;2023-05-18T07:25:36;12.30;99.90
19999;DHT22;10160;50.926;4.374;2023-05-18T07:28:01;12.50;99.90
19999;DHT22;10160;50.926;4.374;2023-05-18T07:30:27;12.30;99.90
19999;DHT22;10160;50.926;4.374;2023-05-18T07:32:53;12.00;99.90
19999;DHT22;10160;50.926;4.374;2023-05-18T07:35:21;11.70;99.90
19999;DHT22;10160;50.926;4.374;2023-05-18T07:37:47;12.00;99.90
19999;DHT22;10160;50.926;4.374;2023-05-18T07:40:13;12.40;99.90
19999;DHT22;10160;50.926;4.374;2023-05-18T07:42:39;12.10;99.90
19999;DHT22;10160;50.926;4.374;2023-05-18T07:45:06;11.60;99.90
19999;DHT22;10160;50.926;4.374;2023-05-18T07:47:32;11.90;99.90
19999;DHT22;10160;50.926;4.374;2023-05-18T07:49:58;12.20;99.90
19999;DHT22;10160;50.926;4.374;2023-05-18T07:52:23;11.60;99.90
19999;DHT22;10160;50.926;4.374;2023-05-18T07:54:49;11.50;99.90
19999;DHT22;10160;50.926;4.374;2023-05-18T07:57:15;11.80;99.90
19999;DHT22;10160;50.926;4.374;2023-05-18T07:59:41;12.10;99.90
19999;DHT22;10160;50.926;4.374;2023-05-18T08:02:06;12.40;99.90
19999;DHT22;10160;50.926;4.374;2023-05-18T08:04:32;12.70;99.90
19999;DHT22;10160;50.926;4.374;2023-05-18T08:06:58;12.70;99.90
19999;DHT22;10160;50.926;4.374;2023-05-18T08:09:28;12.30;99.90
19999;DHT22;10160;50.926;4.374;2023-05-18T08:11:54;12.40;99.90
19999;DHT22;10160;50.926;4.374;2023-05-18T08:14:20;12.90;99.90
19999;DHT22;10160;50.926;4.374;2023-05-18T08:16:46;13.20;99.90
19999;DHT22;10160;50.926;4.374;2023-05-18T08:19:11;13.20;99.90
19999;DHT22;10160;50.926;4.374;2023-05-18T08:21:37;13.00;99.90
19999;DHT22;10160;50.926;4.374;2023-05-18T08:24:03;13.30;99.90
19999;DHT22;10160;50.926;4.374;2023-05-18T08:26:29;13.60;99.90
19999;DHT22;10160;50.926;4.374;2023-05-18T08:28:55;13.80;99.90
19999;DHT22;10160;50.926;4.374;2023-05-18T08:31:21;13.80;99.90
19999;DHT22;10160;50.926;4.374;2023-05-18T08:33:47;13.90;99.90
19999;DHT22;10160;50.926;4.374;2023-05-18T08:36:13;14.00;99.90
19999;DHT22;10160;50.926;4.374;2023-05-18T08:38:38;13.20;99.90
19999;DHT22;10160;50.926;4.374;2023-05-18T08:41:12;12.90;99.90
19999;DHT22;10160;50.926;4.374;2023-05-18T08:43:41;13.10;99.90
19999;DHT22;10160;50.926;4.374;2023-05-18T08:46:34;13.40;99.90
19999;DHT22;10160;50.926;4.374;2023-05-18T08:49:00;13.70;99.90
19999;DHT22;10160;50.926;4.374;2023-05-18T08:51:28;13.70;99.90
19999;DHT22;10160;50.926;4.374;2023-05-18T08:53:54;13.90;99.90
19999;DHT22;10160;50.926;4.374;2023-05-18T08:56:24;13.50;99.90
19999;DHT22;10160;50.926;4.374;2023-05-18T08:58:54;13.20;99.90
19999;DHT22;10160;50.926;4.374;2023-05-18T09:01:21;12.70;99.90
19999;DHT22;10160;50.926;4.374;2023-05-18T09:03:53;12.80;99.90
19999;DHT22;10160;50.926;4.374;2023-05-18T09:06:20;13.30;99.90
19999;DHT22;10160;50.926;4.374;2023-05-18T09:08:53;13.70;99.90
19999;DHT22;10160;50.926;4.374;2023-05-18T09:11:21;14.10;99.90
19999;DHT22;10160;50.926;4.374;2023-05-18T09:13:48;14.40;99.90
19999;DHT22;10160;50.926;4.374;2023-05-18T09:16:15;14.50;99.90
19999;DHT22;10160;50.926;4.374;2023-05-18T09:18:41;14.60;99.90
19999;DHT22;10160;50.926;4.374;2023-05-18T09:21:07;14.50;99.90
19999;DHT22;10160;50.926;4.374;2023-05-18T09:23:33;13.80;99.90
19999;DHT22;10160;50.926;4.374;2023-05-18T09:25:59;14.00;99.90
19999;DHT22;10160;50.926;4.374;2023-05-18T09:28:41;14.30;99.90
19999;DHT22;10160;50.926;4.374;2023-05-18T09:31:09;14.10;99.90
19999;DHT22;10160;50.926;4.374;2023-05-18T09:33:38;14.40;99.90
19999;DHT22;10160;50.926;4.374;2023-05-18T09:36:05;14.60;99.90
19999;DHT22;10160;50.926;4.374;2023-05-18T09:38:39;14.80;99.90
19999;DHT22;10160;50.926;4.374;2023-05-18T09:41:12;15.20;99.90
19999;DHT22;10160;50.926;4.374;2023-05-18T09:43:39;15.30;99.90
19999;DHT22;10160;50.926;4.374;2023-05-18T09:46:06;15.40;99.90
19999;DHT22;10160;50.926;4.374;2023-05-18T09:48:34;15.70;99.90
19999;DHT22;10160;50.926;4.374;2023-05-18T09:51:01;16.10;99.90
19999;DHT22;10160;50.926;4.374;2023-05-18T09:53:27;16.40;99.90
19999;DHT22;10160;50.926;4.374;2023-05-18T09:55:52;16.70;99.90
19999;DHT22;10160;50.926;4.374;2023-05-18T09:58:18;16.40;99.90
19999;DHT22;10160;50.926;4.374;2023-05-18T10:00:47;16.20;99.90
19999;DHT22;10160;50.926;4.374;2023-05-18T10:03:21;16.40;99.90
19999;DHT22;10160;50.926;4.374;2023-05-18T10:05:47;16.20;99.90
19999;DHT22;10160;50.926;4.374;2023-05-18T10:08:13;15.90;99.90
19999;DHT22;10160;50.926;4.374;2023-05-18T10:10:45;16.10;99.90
19999;DHT22;10160;50.926;4.374;2023-05-18T10:13:16;16.40;99.90
19999;DHT22;10160;50.926;4.374;2023-05-18T10:15:49;16.80;99.90
19999;DHT22;10160;50.926;4.374;2023-05-18T10:18:22;17.40;99.90
19999;DHT22;10160;50.926;4.374;2023-05-18T10:20:49;17.70;99.90
19999;DHT22;10160;50.926;4.374;2023-05-18T10:23:17;17.20;99.90
19999;DHT22;10160;50.926;4.374;2023-05-18T10:25:45;17.60;99.90
19999;DHT22;10160;50.926;4.374;2023-05-18T10:28:24;18.10;99.90
19999;DHT22;10160;50.926;4.374;2023-05-18T10:30:54;18.10;99.90
19999;DHT22;10160;50.926;4.374;2023-05-18T10:33:25;18.10;99.90
19999;DHT22;10160;50.926;4.374;2023-05-18T10:35:52;17.70;99.90
19999;DHT22;10160;50.926;4.374;2023-05-18T10:38:26;17.40;99.90
19999;DHT22;10160;50.926;4.374;2023-05-18T10:40:57;17.80;99.90
19999;DHT22;10160;50.926;4.374;2023-05-18T10:43:25;17.30;99.90
19999;DHT22;10160;50.926;4.374;2023-05-18T10:45:56;18.00;99.90
19999;DHT22;10160;50.926;4.374;2023-05-18T10:48:23;18.30;99.90
19999;DHT22;10160;50.926;4.374;2023-05-18T10:50:50;18.10;99.90
19999;DHT22;10160;50.926;4.374;2023-05-18T10:53:19;18.60;99.90
19999;DHT22;10160;50.926;4.374;2023-05-18T10:55:49;18.10;99.90
19999;DHT22;10160;50.926;4.374;2023-05-18T10:58:17;18.40;99.90
19999;DHT22;10160;50.926;4.374;2023-05-18T11:00:51;18.60;99.90
19999;DHT22;10160;50.926;4.374;2023-05-18T11:03:17;18.90;99.90
19999;DHT22;10160;50.926;4.374;2023-05-18T11:05:49;19.20;99.90
19999;DHT22;10160;50.926;4.374;2023-05-18T11:08:25;19.30;99.90
19999;DHT22;10160;50.926;4.374;2023-05-18T11:11:02;19.40;99.90
19999;DHT22;10160;50.926;4.374;2023-05-18T11:13:30;19.40;99.90
19999;DHT22;10160;50.926;4.374;2023-05-18T11:18:46;18.80;99.90
19999;DHT22;10160;50.926;4.374;2023-05-18T11:26:42;18.00;99.90
19999;DHT22;10160;50.926;4.374;2023-05-18T11:29:19;18.10;99.90
19999;DHT22;10160;50.926;4.374;2023-05-18T11:31:46;17.90;99.90
19999;DHT22;10160;50.926;4.374;2023-05-18T11:34:39;17.10;99.90
19999;DHT22;10160;50.926;4.374;2023-05-18T11:37:06;16.70;99.90
19999;DHT22;10160;50.926;4.374;2023-05-18T11:39:34;16.80;99.90
19999;DHT22;10160;50.926;4.374;2023-05-18T11:42:05;16.80;99.90
19999;DHT22;10160;50.926;4.374;2023-05-18T11:44:31;17.10;99.90
19999;DHT22;10160;50.926;4.374;2023-05-18T11:49:28;18.10;99.90
19999;DHT22;10160;50.926;4.374;2023-05-18T11:54:51;17.60;99.90
19999;DHT22;10160;50.926;4.374;2023-05-18T11:57:20;17.40;99.90
19999;DHT22;10160;50.926;4.374;2023-05-18T11:59:54;17.80;99.90
19999;DHT22;10160;50.926;4.374;2023-05-18T12:02:30;18.70;99.90
19999;DHT22;10160;50.926;4.374;2023-05-18T12:04:59;19.30;99.90
19999;DHT22;10160;50.926;4.374;2023-05-18T12:07:26;19.90;99.90
19999;DHT22;10160;50.926;4.374;2023-05-18T12:10:07;20.20;99.90
19999;DHT22;10160;50.926;4.374;2023-05-18T12:12:34;20.70;99.90
19999;DHT22;10160;50.926;4.374;2023-05-18T12:15:02;20.30;99.90
19999;DHT22;10160;50.926;4.374;2023-05-18T12:20:15;19.50;99.90
19999;DHT22;10160;50.926;4.374;2023-05-18T12:22:46;18.70;99.90
19999;DHT22;10160;50.926;4.374;2023-05-18T12:25:17;18.30;99.90
19999;DHT22;10160;50.926;4.374;2023-05-18T12:27:45;18.60;99.90
19999;DHT22;10160;50.926;4.374;2023-05-18T12:30:22;18.60;99.90
19999;DHT22;10160;50.926;4.374;2023-05-18T12:32:53;18.90;99.90
19999;DHT22;10160;50.926;4.374;2023-05-18T12:35:26;18.30;99.90
19999;DHT22;10160;50.926;4.374;2023-05-18T12:37:52;17.50;99.90
19999;DHT22;10160;50.926;4.374;2023-05-18T12:40:22;17.30;99.90
19999;DHT22;10160;50.926;4.374;2023-05-18T12:45:31;18.00;99.90
19999;DHT22;10160;50.926;4.374;2023-05-18T12:48:07;18.10;99.90
19999;DHT22;10160;50.926;4.374;2023-05-18T12:50:34;18.30;99.90
19999;DHT22;10160;50.926;4.374;2023-05-18T12:53:01;18.70;99.90
19999;DHT22;10160;50.926;4.374;2023-05-18T12:55:28;19.50;99.90
19999;DHT22;10160;50.926;4.374;2023-05-18T13:00:26;20.20;99.90
19999;DHT22;10160;50.926;4.374;2023-05-18T13:02:51;20.30;99.90
19999;DHT22;10160;50.926;4.374;2023-05-18T13:05:22;20.00;99.90
19999;DHT22;10160;50.926;4.374;2023-05-18T13:07:48;20.30;99.90
19999;DHT22;10160;50.926;4.374;2023-05-18T13:10:16;20.20;99.90
19999;DHT22;10160;50.926;4.374;2023-05-18T13:12:48;20.60;99.90
19999;DHT22;10160;50.926;4.374;2023-05-18T13:15:17;20.00;99.90
19999;DHT22;10160;50.926;4.374;2023-05-18T13:22:58;20.90;99.90
19999;DHT22;10160;50.926;4.374;2023-05-18T13:25:24;21.20;99.90
19999;DHT22;10160;50.926;4.374;2023-05-18T13:27:51;21.60;99.90
19999;DHT22;10160;50.926;4.374;2023-05-18T13:30:20;21.80;99.90
19999;DHT22;10160;50.926;4.374;2023-05-18T13:32:45;21.60;99.90
19999;DHT22;10160;50.926;4.374;2023-05-18T13:35:11;20.90;99.90
19999;DHT22;10160;50.926;4.374;2023-05-18T13:37:38;21.40;99.90
19999;DHT22;10160;50.926;4.374;2023-05-18T13:40:04;21.90;99.90
19999;DHT22;10160;50.926;4.374;2023-05-18T13:42:31;22.00;99.90
19999;DHT22;10160;50.926;4.374;2023-05-18T13:44:56;21.40;99.90
19999;DHT22;10160;50.926;4.374;2023-05-18T13:47:22;20.90;99.90
19999;DHT22;10160;50.926;4.374;2023-05-18T13:49:48;20.60;99.90
19999;DHT22;10160;50.926;4.374;2023-05-18T13:52:13;21.00;99.90
19999;DHT22;10160;50.926;4.374;2023-05-18T13:54:39;20.40;99.90
19999;DHT22;10160;50.926;4.374;2023-05-18T13:57:05;18.80;99.90
19999;DHT22;10160;50.926;4.374;2023-05-18T13:59:32;18.70;99.90
19999;DHT22;10160;50.926;4.374;2023-05-18T14:01:59;19.60;99.90
19999;DHT22;10160;50.926;4.374;2023-05-18T14:04:26;20.00;99.90
19999;DHT22;10160;50.926;4.374;2023-05-18T14:06:51;20.40;99.90
19999;DHT22;10160;50.926;4.374;2023-05-18T14:09:18;21.00;99.90
19999;DHT22;10160;50.926;4.374;2023-05-18T14:11:44;19.90;99.90
19999;DHT22;10160;50.926;4.374;2023-05-18T14:14:10;19.60;99.90
19999;DHT22;10160;50.926;4.374;2023-05-18T14:16:35;19.90;99.90
19999;DHT22;10160;50.926;4.374;2023-05-18T14:19:01;19.60;99.90
19999;DHT22;10160;50.926;4.374;2023-05-18T14:21:27;18.90;99.90
19999;DHT22;10160;50.926;4.374;2023-05-18T14:23:53;19.50;99.90
19999;DHT22;10160;50.926;4.374;2023-05-18T14:26:18;19.50;99.90
19999;DHT22;10160;50.926;4.374;2023-05-18T14:28:44;18.70;99.90
19999;DHT22;10160;50.926;4.374;2023-05-18T14:31:10;19.00;99.90
19999;DHT22;10160;50.926;4.374;2023-05-18T14:33:36;19.70;99.90
19999;DHT22;10160;50.926;4.374;2023-05-18T14:36:02;20.30;99.90
19999;DHT22;10160;50.926;4.374;2023-05-18T14:38:27;21.00;99.90
19999;DHT22;10160;50.926;4.374;2023-05-18T14:40:53;20.90;99.90
19999;DHT22;10160;50.926;4.374;2023-05-18T14:43:19;21.30;99.90
19999;DHT22;10160;50.926;4.374;2023-05-18T14:45:45;21.40;99.90
19999;DHT22;10160;50.926;4.374;2023-05-18T14:48:10;20.50;99.90
19999;DHT22;10160;50.926;4.374;2023-05-18T14:50:37;21.00;99.90
19999;DHT22;10160;50.926;4.374;2023-05-18T14:53:02;21.20;99.90
19999;DHT22;10160;50.926;4.374;2023-05-18T14:55:28;21.40;99.90
19999;DHT22;10160;50.926;4.374;2023-05-18T14:57:54;21.10;99.90
19999;DHT22;10160;50.926;4.374;2023-05-18T15:00:20;20.80;99.90
19999;DHT22;10160;50.926;4.374;2023-05-18T15:02:45;21.00;99.90
19999;DHT22;10160;50.926;4.374;2023-05-18T15:05:11;21.00;99.90
19999;DHT22;10160;50.926;4.374;2023-05-18T15:07:37;20.30;99.90
19999;DHT22;10160;50.926;4.374;2023-05-18T15:10:03;20.50;99.90
19999;DHT22;10160;50.926;4.374;2023-05-18T15:12:28;20.80;99.90
19999;DHT22;10160;50.926;4.374;2023-05-18T15:14:54;21.10;99.90
19999;DHT22;10160;50.926;4.374;2023-05-18T15:17:20;20.80;99.90
19999;DHT22;10160;50.926;4.374;2023-05-18T15:19:46;19.80;99.90
19999;DHT22;10160;50.926;4.374;2023-05-18T15:22:12;19.80;99.90
19999;DHT22;10160;50.926;4.374;2023-05-18T15:24:37;20.20;99.90
19999;DHT22;10160;50.926;4.374;2023-05-18T15:27:03;20.00;99.90
19999;DHT22;10160;50.926;4.374;2023-05-18T15:29:29;20.00;99.90
19999;DHT22;10160;50.926;4.374;2023-05-18T15:31:55;19.50;99.90
19999;DHT22;10160;50.926;4.374;2023-05-18T15:34:20;19.30;99.90
19999;DHT22;10160;50.926;4.374;2023-05-18T15:36:46;19.50;99.90
19999;DHT22;10160;50.926;4.374;2023-05-18T15:39:12;18.70;99.90
19999;DHT22;10160;50.926;4.374;2023-05-18T15:41:38;18.30;99.90
19999;DHT22;10160;50.926;4.374;2023-05-18T15:44:03;18.60;99.90
19999;DHT22;10160;50.926;4.374;2023-05-18T15:46:30;18.90;99.90
19999;DHT22;10160;50.926;4.374;2023-05-18T15:48:58;19.30;99.90
19999;DHT22;10160;50.926;4.374;2023-05-18T15:51:24;19.70;99.90
19999;DHT22;10160;50.926;4.374;2023-05-18T15:53:50;19.80;99.90
19999;DHT22;10160;50.926;4.374;2023-05-18T15:56:15;20.10;99.90
19999;DHT22;10160;50.926;4.374;2023-05-18T15:58:43;20.50;99.90
19999;DHT22;10160;50.926;4.374;2023-05-18T16:01:09;19.60;99.90
19999;DHT22;10160;50.926;4.374;2023-05-18T16:03:35;18.60;99.90
19999;DHT22;10160;50.926;4.374;2023-05-18T16:06:01;18.40;99.90
19999;DHT22;10160;50.926;4.374;2023-05-18T16:08:26;18.50;99.90
19999;DHT22;10160;50.926;4.374;2023-05-18T16:10:52;19.10;99.90
19999;DHT22;10160;50.926;4.374;2023-05-18T16:13:17;19.40;99.90
19999;DHT22;10160;50.926;4.374;2023-05-18T16:15:44;19.00;99.90